Time;durP1;ratioP1;P1;durP2;ratioP2;P2;SDS_P1;SDS_P2;PMS_P1;PMS_P2;Temp;Humidity;BMP_temperature;BMP_pressure;BME280_temperature;BME280_humidity;BME280_pressure;Samples;Min_cycle;Max_cycle;Signal;HPM_P1;HPM_P2
2023/03/08 00:01:11;;;;;;;7.60;3.40;;;-1.20;99.90;;;;;;5051899;28;20053;-78
2023/03/08 00:03:36;;;;;;;4.57;3.13;;;-0.80;99.90;;;;;;5031735;28;20491;-78
2023/03/08 00:06:07;;;;;;;6.27;2.70;;;-0.60;99.90;;;;;;5033117;28;20084;-78
2023/03/08 00:08:33;;;;;;;4.07;2.30;;;-1.30;99.90;;;;;;5022080;28;20056;-77
2023/03/08 00:10:58;;;;;;;4.97;1.83;;;-1.40;99.90;;;;;;5033207;28;20045;-77
2023/03/08 00:13:24;;;;;;;7.57;2.40;;;-1.40;99.90;;;;;;5031914;28;20144;-78
2023/03/08 00:15:51;;;;;;;4.17;2.33;;;-1.30;99.90;;;;;;5033104;28;20385;-77
2023/03/08 00:18:17;;;;;;;6.47;2.80;;;-0.80;99.90;;;;;;5014821;28;20088;-77
2023/03/08 00:20:43;;;;;;;9.10;2.00;;;-1.40;99.90;;;;;;5033035;28;20158;-77
2023/03/08 00:23:09;;;;;;;5.50;1.93;;;-1.30;99.90;;;;;;5031808;28;20049;-77
2023/03/08 00:25:35;;;;;;;5.03;2.10;;;-1.20;99.90;;;;;;5041966;28;20053;-77
2023/03/08 00:28:00;;;;;;;5.50;2.10;;;-1.40;99.90;;;;;;5015863;28;20049;-78
2023/03/08 00:30:27;;;;;;;5.70;2.30;;;-1.40;99.90;;;;;;5032476;28;20068;-77
2023/03/08 00:32:53;;;;;;;3.93;1.93;;;-1.50;99.90;;;;;;5031511;28;20049;-78
2023/03/08 00:35:19;;;;;;;6.20;1.90;;;-1.40;99.90;;;;;;5014922;28;20052;-77
2023/03/08 00:37:45;;;;;;;7.53;1.90;;;-1.40;99.90;;;;;;5015710;28;20049;-78
2023/03/08 00:40:11;;;;;;;6.47;1.70;;;-1.50;99.90;;;;;;5018511;28;20396;-77
2023/03/08 00:42:37;;;;;;;6.77;2.00;;;-1.50;99.90;;;;;;5037561;28;20336;-77
2023/03/08 00:45:03;;;;;;;6.60;1.60;;;-1.50;99.90;;;;;;5051996;28;20510;-77
2023/03/08 00:47:28;;;;;;;5.03;1.70;;;-1.50;99.90;;;;;;5025512;28;20464;-77
2023/03/08 00:49:54;;;;;;;5.00;1.63;;;-1.50;99.90;;;;;;5037148;28;20049;-78
2023/03/08 00:52:20;;;;;;;7.73;2.00;;;-0.90;99.90;;;;;;5031276;28;20664;-77
2023/03/08 00:54:45;;;;;;;7.87;2.13;;;-1.50;99.90;;;;;;5030844;28;20038;-78
2023/03/08 00:57:11;;;;;;;3.37;1.40;;;-1.50;99.90;;;;;;5015278;28;20057;-78
2023/03/08 00:59:37;;;;;;;5.27;1.70;;;-1.50;99.90;;;;;;5031822;28;20041;-78
2023/03/08 01:02:03;;;;;;;6.13;1.60;;;-1.60;99.90;;;;;;5029357;28;20487;-76
2023/03/08 01:04:28;;;;;;;7.43;1.90;;;-1.60;99.90;;;;;;5031312;28;20132;-78
2023/03/08 01:06:54;;;;;;;7.13;1.70;;;-1.40;99.90;;;;;;5017150;28;20053;-78
2023/03/08 01:09:20;;;;;;;6.60;1.90;;;-1.60;99.90;;;;;;5029213;28;20507;-78
2023/03/08 01:11:45;;;;;;;8.73;1.90;;;-1.70;99.90;;;;;;5029994;28;20585;-78
2023/03/08 01:14:11;;;;;;;5.47;1.70;;;-1.60;99.90;;;;;;5029055;28;20480;-77
2023/03/08 01:16:37;;;;;;;4.47;1.53;;;-1.70;99.90;;;;;;5017490;28;20095;-78
2023/03/08 01:19:03;;;;;;;4.47;1.70;;;-1.70;99.90;;;;;;5028831;28;20048;-77
2023/03/08 01:21:30;;;;;;;8.13;1.63;;;-1.70;99.90;;;;;;5030564;28;20057;-78
2023/03/08 01:23:56;;;;;;;7.03;1.40;;;-1.60;99.90;;;;;;5035543;28;20048;-77
2023/03/08 01:26:24;;;;;;;3.33;1.30;;;-1.60;99.90;;;;;;5025490;28;20253;-78
2023/03/08 01:28:51;;;;;;;5.73;1.23;;;-1.70;99.90;;;;;;5026272;28;20046;-78
2023/03/08 01:31:22;;;;;;;6.03;1.30;;;-1.70;99.90;;;;;;5030151;28;20050;-78
2023/03/08 01:33:48;;;;;;;;;;;-1.40;99.90;;;;;;5030679;28;20491;-78
2023/03/08 01:36:17;;;;;;;4.37;1.73;;;-1.80;99.90;;;;;;5022321;28;19925;-78
2023/03/08 01:38:43;;;;;;;6.07;1.70;;;-1.80;99.90;;;;;;5022936;28;20076;-77
2023/03/08 01:41:17;;;;;;;5.30;1.70;;;-1.90;99.90;;;;;;5011799;28;20056;-77
2023/03/08 01:43:43;;;;;;;5.13;1.30;;;-2.00;99.90;;;;;;5050597;28;20453;-78
2023/03/08 01:46:25;;;;;;;6.70;1.07;;;-2.00;99.90;;;;;;5043094;28;20044;-78
2023/03/08 01:49:17;;;;;;;3.42;1.00;;;-1.90;99.90;;;;;;5025871;28;20114;-77
2023/03/08 01:52:01;;;;;;;4.27;0.90;;;-1.90;99.90;;;;;;5050114;28;20052;-78
2023/03/08 01:54:31;;;;;;;3.07;0.70;;;-1.90;99.90;;;;;;5050213;28;20055;-78
2023/03/08 01:57:13;;;;;;;2.93;0.93;;;-1.90;99.90;;;;;;5035333;28;20430;-78
2023/03/08 01:59:40;;;;;;;5.53;0.93;;;-1.80;99.90;;;;;;5050026;28;20064;-78
2023/03/08 02:02:06;;;;;;;3.23;0.60;;;-1.80;99.90;;;;;;5040995;28;20295;-77
2023/03/08 02:04:32;;;;;;;3.00;0.53;;;-1.30;99.90;;;;;;5029454;28;20495;-78
2023/03/08 02:06:58;;;;;;;3.17;0.70;;;-0.80;99.90;;;;;;5015764;28;20059;-78
2023/03/08 02:09:24;;;;;;;2.90;0.47;;;-0.20;99.90;;;;;;5028022;28;20049;-78
2023/03/08 02:11:50;;;;;;;4.27;0.40;;;-1.10;99.90;;;;;;5030486;28;20079;-78
2023/03/08 02:14:16;;;;;;;5.83;0.40;;;-1.10;99.90;;;;;;5029202;28;20068;-78
2023/03/08 02:16:42;;;;;;;1.77;0.40;;;-1.10;99.90;;;;;;5015093;28;20045;-78
2023/03/08 02:19:15;;;;;;;2.23;0.30;;;-0.70;99.90;;;;;;5011447;28;20056;-78
2023/03/08 02:21:41;;;;;;;5.40;0.30;;;-1.10;99.90;;;;;;5012705;28;20049;-78
2023/03/08 02:24:18;;;;;;;3.07;0.47;;;-1.10;99.90;;;;;;5035119;28;20124;-78
2023/03/08 02:26:44;;;;;;;1.37;0.27;;;-1.10;99.90;;;;;;5018857;28;20042;-78
2023/03/08 02:29:10;;;;;;;2.27;0.50;;;-0.60;99.90;;;;;;5029295;28;20077;-78
2023/03/08 02:31:36;;;;;;;3.77;0.57;;;-1.10;99.90;;;;;;5030239;28;20545;-78
2023/03/08 02:34:02;;;;;;;3.00;0.53;;;-1.10;99.90;;;;;;5029124;28;20041;-78
2023/03/08 02:36:27;;;;;;;4.07;0.40;;;-1.20;99.90;;;;;;5017207;28;20400;-78
2023/03/08 02:38:53;;;;;;;3.63;0.60;;;-1.20;99.90;;;;;;5022694;28;20416;-78
2023/03/08 02:41:19;;;;;;;2.20;0.50;;;-1.30;99.90;;;;;;5014334;28;20053;-78
2023/03/08 02:43:44;;;;;;;3.63;0.70;;;-0.90;99.90;;;;;;5049485;28;20057;-78
2023/03/08 02:46:14;;;;;;;3.90;0.53;;;-1.30;99.90;;;;;;5040760;28;20253;-78
2023/03/08 02:48:39;;;;;;;5.20;0.70;;;-1.40;99.90;;;;;;5031087;28;20480;-78
2023/03/08 02:51:05;;;;;;;3.27;0.67;;;-1.40;99.90;;;;;;5049137;28;20128;-78
2023/03/08 02:53:31;;;;;;;3.60;0.60;;;-1.50;99.90;;;;;;5049225;28;20418;-78
2023/03/08 02:55:57;;;;;;;4.00;0.50;;;-1.50;99.90;;;;;;5049919;28;20114;-78
2023/03/08 02:58:22;;;;;;;5.90;0.97;;;-1.30;99.90;;;;;;5034135;28;20067;-78
2023/03/08 03:00:48;;;;;;;3.57;0.60;;;-1.60;99.90;;;;;;5049708;28;20659;-77
2023/03/08 03:03:15;;;;;;;5.00;0.80;;;-1.60;99.90;;;;;;5030220;28;20065;-78
2023/03/08 03:05:42;;;;;;;6.90;0.87;;;-1.60;99.90;;;;;;5030046;28;20135;-78
2023/03/08 03:08:09;;;;;;;2.90;0.80;;;-1.70;99.90;;;;;;4996334;28;20046;-77
2023/03/08 03:10:36;;;;;;;8.40;0.80;;;-1.80;99.90;;;;;;5028371;28;20092;-78
2023/03/08 03:13:02;;;;;;;5.60;0.90;;;-1.80;99.90;;;;;;5027973;28;20042;-78
2023/03/08 03:15:28;;;;;;;2.80;0.80;;;-1.80;99.90;;;;;;5027442;28;20046;-78
2023/03/08 03:17:55;;;;;;;3.63;0.87;;;-1.90;99.90;;;;;;5013672;28;20519;-77
2023/03/08 03:20:20;;;;;;;4.33;0.87;;;-1.80;99.90;;;;;;5027973;28;20049;-77
2023/03/08 03:22:46;;;;;;;3.47;0.90;;;-1.80;99.90;;;;;;5028854;28;20072;-77
2023/03/08 03:25:12;;;;;;;4.80;0.97;;;-1.80;99.90;;;;;;5039326;28;20037;-77
2023/03/08 03:27:38;;;;;;;2.27;0.90;;;-1.90;99.90;;;;;;5013382;28;20053;-78
2023/03/08 03:30:05;;;;;;;6.00;1.30;;;-1.80;99.90;;;;;;5029533;28;20045;-77
2023/03/08 03:32:31;;;;;;;5.03;1.10;;;-1.90;99.90;;;;;;5027798;28;20045;-78
2023/03/08 03:34:57;;;;;;;6.77;1.10;;;-1.90;99.90;;;;;;5030994;28;20333;-78
2023/03/08 03:37:22;;;;;;;3.43;1.20;;;-1.90;99.90;;;;;;5017731;28;20422;-78
2023/03/08 03:39:48;;;;;;;6.90;1.73;;;-1.90;99.90;;;;;;5021620;28;20123;-76
2023/03/08 03:42:14;;;;;;;5.97;1.00;;;-1.90;99.90;;;;;;5031381;28;20045;-77
2023/03/08 03:44:40;;;;;;;7.97;1.10;;;-1.90;99.90;;;;;;5053652;28;20041;-77
2023/03/08 03:47:06;;;;;;;3.77;1.07;;;-1.90;99.90;;;;;;5030036;28;20080;-77
2023/03/08 03:49:31;;;;;;;5.13;0.70;;;-1.80;99.90;;;;;;5047912;28;20123;-78
2023/03/08 03:51:57;;;;;;;7.70;1.10;;;-1.80;99.90;;;;;;5039927;28;20050;-78
2023/03/08 03:54:23;;;;;;;7.03;1.20;;;-1.80;99.90;;;;;;5032628;28;20049;-77
2023/03/08 03:56:49;;;;;;;3.63;1.00;;;-1.80;99.90;;;;;;5017655;28;20097;-77
2023/03/08 03:59:14;;;;;;;3.83;1.10;;;-1.80;99.90;;;;;;5032428;28;20049;-77
2023/03/08 04:01:40;;;;;;;2.97;0.90;;;-1.90;99.90;;;;;;5033015;28;20041;-77
2023/03/08 04:04:06;;;;;;;5.80;1.20;;;-1.90;99.90;;;;;;5032321;28;20080;-78
2023/03/08 04:06:33;;;;;;;5.67;1.10;;;-1.90;99.90;;;;;;5019533;28;20042;-77
2023/03/08 04:09:02;;;;;;;2.47;0.93;;;-1.90;99.90;;;;;;5028803;28;20120;-77
2023/03/08 04:11:33;;;;;;;5.33;1.27;;;-2.00;99.90;;;;;;5032097;28;20045;-77
2023/03/08 04:13:59;;;;;;;8.33;1.33;;;-2.00;99.90;;;;;;5029268;28;20138;-77
2023/03/08 04:16:27;;;;;;;4.30;1.03;;;-2.00;99.90;;;;;;5016757;28;20474;-78
2023/03/08 04:18:55;;;;;;;2.70;0.80;;;-1.90;99.90;;;;;;5026433;28;20064;-77
2023/03/08 04:21:21;;;;;;;3.60;1.00;;;-2.00;99.90;;;;;;5028091;28;20125;-77
2023/03/08 04:23:48;;;;;;;4.40;1.00;;;-2.00;99.90;;;;;;5032782;28;20079;-77
2023/03/08 04:26:14;;;;;;;4.77;0.80;;;-2.00;99.90;;;;;;5028295;28;20098;-78
2023/03/08 04:28:40;;;;;;;3.53;1.10;;;-1.60;99.90;;;;;;5024262;28;20069;-77
2023/03/08 04:31:18;;;;;;;2.33;0.83;;;-2.00;99.90;;;;;;5029318;28;20385;-78
2023/03/08 04:33:45;;;;;;;2.20;0.70;;;-2.10;99.90;;;;;;5027692;28;20109;-77
2023/03/08 04:36:14;;;;;;;2.80;0.97;;;-2.10;99.90;;;;;;5020124;28;20049;-78
2023/03/08 04:38:40;;;;;;;5.13;1.03;;;-2.10;99.90;;;;;;5022267;28;20045;-78
2023/03/08 04:41:10;;;;;;;6.13;1.10;;;-2.10;99.90;;;;;;5012713;28;20101;-78
2023/03/08 04:43:38;;;;;;;4.47;0.90;;;-2.20;99.90;;;;;;5051515;28;20059;-77
2023/03/08 04:46:05;;;;;;;3.93;1.23;;;-2.10;99.90;;;;;;5051205;28;20064;-77
2023/03/08 04:48:30;;;;;;;5.27;1.17;;;-1.90;99.90;;;;;;5026369;28;20048;-78
2023/03/08 04:50:59;;;;;;;5.63;0.90;;;-2.20;99.90;;;;;;5052322;28;20045;-78
2023/03/08 04:53:26;;;;;;;5.00;1.37;;;-2.20;99.90;;;;;;5049910;28;20414;-77
2023/03/08 04:55:52;;;;;;;4.70;1.60;;;-2.20;99.90;;;;;;5052467;28;20390;-77
2023/03/08 04:58:18;;;;;;;8.73;1.93;;;-1.50;99.90;;;;;;5035034;28;20086;-77
2023/03/08 05:00:44;;;;;;;7.20;1.93;;;-2.30;99.90;;;;;;5051923;28;20052;-77
2023/03/08 05:03:10;;;;;;;7.97;1.60;;;-2.30;99.90;;;;;;5033213;28;20061;-77
2023/03/08 05:05:35;;;;;;;4.97;1.00;;;-2.30;99.90;;;;;;5031197;28;20046;-78
2023/03/08 05:08:05;;;;;;;5.10;1.40;;;-2.30;99.90;;;;;;5014527;28;20053;-77
2023/03/08 05:10:31;;;;;;;5.30;1.60;;;-2.30;99.90;;;;;;5031470;28;20042;-77
2023/03/08 05:12:57;;;;;;;3.80;1.00;;;-2.20;99.90;;;;;;5030744;28;20083;-78
2023/03/08 05:15:23;;;;;;;4.33;1.27;;;-2.30;99.90;;;;;;5030274;28;20421;-77
2023/03/08 05:17:50;;;;;;;4.23;1.20;;;-2.30;99.90;;;;;;5015575;28;20487;-78
2023/03/08 05:20:16;;;;;;;4.13;1.50;;;-2.20;99.90;;;;;;5030297;28;20128;-77
2023/03/08 05:22:42;;;;;;;3.97;1.30;;;-2.20;99.90;;;;;;5029374;28;20534;-78
2023/03/08 05:25:09;;;;;;;8.37;1.13;;;-2.10;99.90;;;;;;5040727;28;20072;-77
2023/03/08 05:27:35;;;;;;;5.43;1.00;;;-2.10;99.90;;;;;;5013897;28;20504;-77
2023/03/08 05:30:02;;;;;;;4.10;1.30;;;-2.10;99.90;;;;;;5030856;28;20368;-78
2023/03/08 05:32:28;;;;;;;5.97;1.17;;;-2.10;99.90;;;;;;5030298;28;20128;-77
2023/03/08 05:34:54;;;;;;;6.47;1.37;;;-2.00;99.90;;;;;;5031046;28;20199;-77
2023/03/08 05:37:20;;;;;;;5.90;1.07;;;-2.00;99.90;;;;;;5014178;28;20095;-77
2023/03/08 05:39:47;;;;;;;4.63;1.47;;;-1.90;99.90;;;;;;5018784;28;20050;-78
2023/03/08 05:42:13;;;;;;;4.73;1.30;;;-1.90;99.90;;;;;;5038336;28;20531;-77
2023/03/08 05:44:38;;;;;;;11.87;1.47;;;-1.90;99.90;;;;;;5031068;28;20136;-78
2023/03/08 05:47:04;;;;;;;4.53;1.30;;;-1.90;99.90;;;;;;5012232;28;20064;-78
2023/03/08 05:49:30;;;;;;;7.23;1.33;;;-1.90;99.90;;;;;;5025297;28;20157;-77
2023/03/08 05:51:56;;;;;;;4.07;1.23;;;-1.60;99.90;;;;;;5010837;28;20053;-77
2023/03/08 05:54:21;;;;;;;4.57;1.07;;;-1.80;99.90;;;;;;5029294;28;20049;-78
2023/03/08 05:56:47;;;;;;;3.53;1.13;;;-1.20;99.90;;;;;;5014443;28;20499;-78
2023/03/08 05:59:13;;;;;;;6.47;1.13;;;-1.80;99.90;;;;;;5027175;28;20059;-78
2023/03/08 06:01:38;;;;;;;4.07;1.30;;;-1.90;99.90;;;;;;5028247;28;20053;-78
2023/03/08 06:04:04;;;;;;;6.23;2.03;;;-1.90;99.90;;;;;;5027960;28;20065;-78
2023/03/08 06:06:30;;;;;;;7.90;1.57;;;-2.00;99.90;;;;;;5014999;28;20050;-78
2023/03/08 06:08:56;;;;;;;7.23;2.63;;;-2.00;99.90;;;;;;5024603;28;20045;-78
2023/03/08 06:11:22;;;;;;;12.17;2.70;;;-2.10;99.90;;;;;;5028621;28;20050;-78
2023/03/08 06:13:48;;;;;;;12.30;3.20;;;-2.10;99.90;;;;;;5025771;28;20045;-78
2023/03/08 06:16:14;;;;;;;6.73;1.77;;;-2.20;99.90;;;;;;5019272;28;20307;-77
2023/03/08 06:18:40;;;;;;;8.17;1.53;;;-2.20;99.90;;;;;;5017522;28;20492;-78
2023/03/08 06:21:17;;;;;;;5.53;1.40;;;-2.20;99.90;;;;;;5024164;28;20128;-78
2023/03/08 06:23:44;;;;;;;7.90;2.40;;;-2.20;99.90;;;;;;5024317;28;20402;-78
2023/03/08 06:26:10;;;;;;;11.50;4.00;;;-2.20;99.90;;;;;;5023796;28;20041;-78
2023/03/08 06:28:36;;;;;;;7.17;1.60;;;-2.10;99.90;;;;;;5017037;28;20106;-78
2023/03/08 06:31:03;;;;;;;3.37;1.30;;;-2.10;99.90;;;;;;5024759;28;20048;-78
2023/03/08 06:33:31;;;;;;;3.13;1.13;;;-2.10;99.90;;;;;;5006874;28;20535;-78
2023/03/08 06:35:59;;;;;;;9.50;1.27;;;-2.10;99.90;;;;;;5024095;28;20064;-78
2023/03/08 06:38:25;;;;;;;6.67;1.57;;;-2.10;99.90;;;;;;5009160;28;20053;-78
2023/03/08 06:40:51;;;;;;;7.90;3.23;;;-1.20;99.90;;;;;;5006073;28;20111;-77
2023/03/08 06:43:17;;;;;;;8.60;2.20;;;-2.10;99.90;;;;;;5030864;28;20045;-79
2023/03/08 06:45:43;;;;;;;9.83;6.30;;;-2.10;99.90;;;;;;5026553;28;20045;-78
2023/03/08 06:48:08;;;;;;;8.47;4.90;;;-2.00;99.90;;;;;;5009879;28;20053;-78
2023/03/08 06:50:34;;;;;;;9.47;1.80;;;-2.10;99.90;;;;;;5020969;28;20062;-78
2023/03/08 06:53:00;;;;;;;4.43;1.70;;;-2.10;99.90;;;;;;5005035;28;20054;-78
2023/03/08 06:55:26;;;;;;;7.57;2.17;;;-2.10;99.90;;;;;;5024570;28;20423;-78
2023/03/08 06:57:54;;;;;;;5.53;2.00;;;-2.10;99.90;;;;;;5010081;28;20058;-78
2023/03/08 07:00:20;;;;;;;5.77;1.90;;;-2.00;99.90;;;;;;5025988;28;20045;-77
2023/03/08 07:02:47;;;;;;;7.33;1.63;;;-2.00;99.90;;;;;;5028920;28;20103;-78
2023/03/08 07:05:14;;;;;;;4.07;0.90;;;-1.90;99.90;;;;;;5023626;28;20041;-77
2023/03/08 07:07:41;;;;;;;4.93;1.20;;;-1.80;99.90;;;;;;4999150;28;20552;-77
2023/03/08 07:10:09;;;;;;;5.90;1.17;;;-1.70;99.90;;;;;;5025348;28;20550;-78
2023/03/08 07:12:39;;;;;;;4.53;1.20;;;-1.70;99.90;;;;;;5025593;28;20053;-78
2023/03/08 07:15:07;;;;;;;5.17;1.50;;;-1.60;99.90;;;;;;5027535;28;20057;-78
2023/03/08 07:17:34;;;;;;;6.90;1.80;;;-1.60;99.90;;;;;;5008279;28;20525;-79
2023/03/08 07:20:00;;;;;;;9.43;2.57;;;-1.60;99.90;;;;;;5028171;28;20083;-78
2023/03/08 07:22:26;;;;;;;6.77;1.73;;;-1.00;99.90;;;;;;5026637;28;20053;-78
2023/03/08 07:24:52;;;;;;;4.70;1.60;;;-1.70;99.90;;;;;;5039786;28;20060;-78
2023/03/08 07:27:17;;;;;;;4.73;1.00;;;-1.90;99.90;;;;;;5013311;28;20054;-78
2023/03/08 07:29:43;;;;;;;10.60;2.33;;;-2.00;99.90;;;;;;5027569;28;20435;-78
2023/03/08 07:32:09;;;;;;;4.83;1.80;;;-2.10;99.90;;;;;;5028338;28;20076;-78
2023/03/08 07:34:34;;;;;;;9.67;2.10;;;-1.70;99.90;;;;;;5028850;28;20111;-78
2023/03/08 07:37:00;;;;;;;4.53;2.10;;;-1.90;99.90;;;;;;5013845;28;20410;-78
2023/03/08 07:39:25;;;;;;;5.70;2.03;;;-1.80;99.90;;;;;;5021031;28;20081;-78
2023/03/08 07:41:51;;;;;;;7.40;2.00;;;-1.80;99.90;;;;;;5026143;28;20449;-78
2023/03/08 07:44:17;;;;;;;8.20;1.80;;;-1.70;99.90;;;;;;5026169;28;20041;-77
2023/03/08 07:46:44;;;;;;;6.10;1.90;;;-1.60;99.90;;;;;;5013911;28;20080;-78
2023/03/08 07:49:10;;;;;;;6.73;2.00;;;-1.50;99.90;;;;;;5030185;28;20042;-78
2023/03/08 07:51:36;;;;;;;5.03;1.90;;;-1.50;99.90;;;;;;5029348;28;20046;-78
2023/03/08 07:54:02;;;;;;;6.03;2.40;;;-1.40;99.90;;;;;;5027847;28;20049;-79
2023/03/08 07:56:28;;;;;;;6.93;2.83;;;-1.40;99.90;;;;;;4998753;28;20519;-78
2023/03/08 07:58:57;;;;;;;7.53;2.67;;;-1.50;99.90;;;;;;5024560;28;20049;-78
2023/03/08 08:01:23;;;;;;;8.33;2.83;;;-1.20;99.90;;;;;;5029068;28;20050;-78
2023/03/08 08:03:49;;;;;;;4.50;2.33;;;-0.90;99.90;;;;;;5028425;28;20064;-78
2023/03/08 08:06:15;;;;;;;8.07;3.20;;;-1.00;99.90;;;;;;5017608;28;20077;-79
2023/03/08 08:08:41;;;;;;;8.43;3.00;;;-1.00;99.90;;;;;;5022097;28;20042;-78
2023/03/08 08:11:12;;;;;;;8.40;3.30;;;-0.90;99.90;;;;;;5026834;28;20396;-78
2023/03/08 08:13:38;;;;;;;8.45;4.28;;;-0.80;99.90;;;;;;5025108;28;20042;-78
2023/03/08 08:16:05;;;;;;;11.80;4.00;;;-0.80;99.90;;;;;;5026817;28;20072;-78
2023/03/08 08:18:32;;;;;;;8.07;3.47;;;-0.80;99.90;;;;;;5016484;28;20041;-78
2023/03/08 08:21:03;;;;;;;7.27;3.47;;;-0.80;99.90;;;;;;5028806;28;20045;-78
2023/03/08 08:23:29;;;;;;;4.35;2.58;;;-0.70;99.90;;;;;;5030261;28;20054;-78
2023/03/08 08:25:54;;;;;;;9.13;4.33;;;-0.60;99.90;;;;;;5033946;28;20052;-78
2023/03/08 08:28:21;;;;;;;8.47;5.30;;;-0.60;99.90;;;;;;5014763;28;20052;-78
2023/03/08 08:31:02;;;;;;;15.93;7.73;;;0.00;99.90;;;;;;5030143;28;20037;-77
2023/03/08 08:33:29;;;;;;;14.75;9.57;;;-0.40;99.90;;;;;;5028110;28;20046;-78
2023/03/08 08:35:55;;;;;;;37.10;24.43;;;-0.40;99.90;;;;;;5039142;28;20124;-78
2023/03/08 08:38:22;;;;;;;21.03;12.93;;;-0.30;99.90;;;;;;5013873;28;20041;-78
2023/03/08 08:40:47;;;;;;;19.67;11.13;;;-0.20;99.90;;;;;;5031204;28;20045;-78
2023/03/08 08:43:13;;;;;;;14.60;10.80;;;0.40;99.90;;;;;;5031156;28;20045;-78
2023/03/08 08:45:44;;;;;;;12.37;7.27;;;0.00;99.90;;;;;;5026197;28;20061;-79
2023/03/08 08:48:10;;;;;;;10.53;6.97;;;0.20;99.90;;;;;;5015505;28;20768;-78
2023/03/08 08:50:38;;;;;;;9.40;6.00;;;0.10;99.90;;;;;;5031333;28;20123;-78
2023/03/08 08:53:04;;;;;;;9.73;5.97;;;0.30;99.90;;;;;;5028899;28;20045;-78
2023/03/08 08:55:36;;;;;;;10.20;5.40;;;0.30;99.90;;;;;;5029518;28;20049;-78
2023/03/08 08:58:03;;;;;;;7.70;5.00;;;0.30;99.90;;;;;;5013662;28;20041;-78
2023/03/08 09:00:30;;;;;;;11.90;7.40;;;0.40;99.90;;;;;;5031027;28;20439;-78
2023/03/08 09:02:56;;;;;;;9.93;6.67;;;0.50;99.90;;;;;;5030617;28;20077;-78
2023/03/08 09:05:22;;;;;;;11.70;6.13;;;0.90;99.90;;;;;;5032216;28;20076;-78
2023/03/08 09:07:48;;;;;;;9.53;5.80;;;0.60;99.90;;;;;;5014811;28;20501;-78
2023/03/08 09:10:14;;;;;;;7.33;4.93;;;0.60;99.90;;;;;;5030902;28;20138;-78
2023/03/08 09:12:41;;;;;;;10.27;4.70;;;0.60;99.90;;;;;;5028434;28;20046;-79
2023/03/08 09:15:10;;;;;;;8.57;4.80;;;0.80;99.90;;;;;;5012313;28;20073;-78
2023/03/08 09:17:36;;;;;;;11.53;5.03;;;1.00;99.90;;;;;;5014464;28;20053;-78
2023/03/08 09:20:04;;;;;;;8.53;4.63;;;1.00;99.90;;;;;;5030977;28;20049;-79
2023/03/08 09:22:30;;;;;;;8.90;4.83;;;0.90;99.90;;;;;;5030180;28;20045;-79
2023/03/08 09:24:56;;;;;;;5.93;4.50;;;1.10;99.90;;;;;;5032294;28;20080;-78
2023/03/08 09:27:22;;;;;;;6.60;4.53;;;1.20;99.90;;;;;;5014217;28;20095;-78
2023/03/08 09:29:48;;;;;;;6.60;4.17;;;1.30;99.90;;;;;;5029926;28;20052;-79
2023/03/08 09:32:13;;;;;;;6.47;4.00;;;1.30;99.90;;;;;;5028747;28;20051;-78
2023/03/08 09:34:39;;;;;;;6.40;4.13;;;1.20;99.90;;;;;;5028840;28;20533;-79
2023/03/08 09:37:07;;;;;;;6.60;3.67;;;1.30;99.90;;;;;;5014681;28;20548;-78
2023/03/08 09:39:33;;;;;;;7.90;4.20;;;1.40;99.90;;;;;;5029505;28;20124;-79
2023/03/08 09:42:02;;;;;;;8.90;3.90;;;1.70;99.90;;;;;;5030922;28;20063;-79
2023/03/08 09:45:00;;;;;;;11.53;4.00;;;1.40;99.90;;;;;;5009888;28;20045;-79
2023/03/08 09:47:34;;;;;;;5.47;3.70;;;1.40;99.90;;;;;;4995526;28;20045;-79
2023/03/08 09:50:12;;;;;;;8.37;3.73;;;1.90;99.90;;;;;;5009963;28;20096;-79
2023/03/08 09:52:38;;;;;;;4.70;3.43;;;2.30;99.90;;;;;;5010634;28;20050;-78
2023/03/08 09:55:11;;;;;;;6.83;3.60;;;2.00;99.90;;;;;;5010485;28;20566;-79
2023/03/08 09:57:51;;;;;;;6.10;3.87;;;1.70;99.90;;;;;;4995370;28;20085;-79
2023/03/08 10:00:28;;;;;;;8.13;4.10;;;1.70;99.90;;;;;;5011272;28;20057;-79
2023/03/08 10:03:21;;;;;;;7.37;4.10;;;1.90;99.90;;;;;;5009457;28;20536;-79
2023/03/08 10:05:59;;;;;;;5.77;3.90;;;2.00;99.90;;;;;;5011176;28;20128;-79
2023/03/08 10:08:37;;;;;;;10.40;4.20;;;2.20;99.90;;;;;;4993367;28;20064;-79
2023/03/08 10:11:12;;;;;;;6.33;4.17;;;2.40;99.90;;;;;;5009337;28;20033;-78
2023/03/08 10:13:46;;;;;;;5.33;3.13;;;2.60;99.90;;;;;;5009002;28;20916;-78
2023/03/08 10:16:28;;;;;;;7.33;3.37;;;2.50;99.90;;;;;;5017216;28;20058;-78
2023/03/08 10:19:15;;;;;;;5.83;2.73;;;2.50;99.90;;;;;;5005081;28;20096;-78
2023/03/08 10:21:43;;;;;;;8.97;3.37;;;2.50;99.90;;;;;;5007721;28;20041;-78
2023/03/08 10:40:33;;;;;;;7.60;2.30;;;3.60;99.90;;;;;;646001;23;20635;-78
2023/03/08 11:09:32;;;;;;;5.30;1.77;;;4.20;99.90;;;;;;4644726;23;20119;-78
2023/03/08 11:14:30;;;;;;;5.53;1.57;;;4.50;99.90;;;;;;5044065;28;20056;-77
2023/03/08 11:17:22;;;;;;;4.60;1.27;;;4.50;99.90;;;;;;5028605;28;20078;-78
2023/03/08 11:20:22;;;;;;;3.53;1.15;;;4.70;99.90;;;;;;5035052;28;20044;-76
2023/03/08 11:23:22;;;;;;;6.07;1.00;;;4.60;99.90;;;;;;5032974;28;20398;-77
2023/03/08 11:26:16;;;;;;;3.33;1.10;;;4.60;99.90;;;;;;5045499;28;20044;-78
2023/03/08 11:29:13;;;;;;;4.83;0.87;;;4.60;99.90;;;;;;5026489;28;20410;-76
2023/03/08 11:31:53;;;;;;;3.43;1.23;;;4.60;99.90;;;;;;5043620;28;20060;-77
2023/03/08 11:34:44;;;;;;;4.37;1.00;;;4.80;99.90;;;;;;5043445;28;20080;-77
2023/03/08 11:37:29;;;;;;;7.83;1.37;;;4.90;99.90;;;;;;5025881;28;20106;-77
2023/03/08 11:40:23;;;;;;;5.10;1.30;;;5.00;99.90;;;;;;5030340;28;20045;-76
2023/03/08 11:43:09;;;;;;;8.93;2.27;;;5.20;99.90;;;;;;5038364;28;20045;-76
2023/03/08 11:45:56;;;;;;;4.10;1.90;;;4.80;99.90;;;;;;5034537;28;20139;-78
2023/03/08 11:48:37;;;;;;;4.73;2.33;;;4.70;99.90;;;;;;5014327;28;20109;-77
2023/03/08 11:51:09;;;;;;;8.30;2.65;;;4.80;99.90;;;;;;5034891;28;20103;-76
2023/03/08 11:54:13;;;;;;;5.97;2.27;;;4.70;99.90;;;;;;5036116;28;20052;-78
2023/03/08 11:56:42;;;;;;;7.23;2.10;;;4.50;99.90;;;;;;5003732;28;20045;-76
2023/03/08 11:59:14;;;;;;;7.27;2.27;;;4.50;99.90;;;;;;5033984;28;20049;-77
2023/03/08 12:01:48;;;;;;;3.50;1.70;;;4.50;99.90;;;;;;5054248;28;20052;-76
2023/03/08 12:04:24;;;;;;;2.87;1.47;;;4.40;99.90;;;;;;5062820;28;20174;-77
2023/03/08 12:06:53;;;;;;;4.17;1.60;;;4.60;99.90;;;;;;5031658;28;20074;-76
2023/03/08 12:09:31;;;;;;;5.57;1.93;;;4.70;99.90;;;;;;5065206;28;20072;-77
2023/03/08 12:12:08;;;;;;;4.03;1.40;;;4.90;99.90;;;;;;5066005;28;20094;-77
2023/03/08 12:15:06;;;;;;;4.80;0.90;;;4.70;99.90;;;;;;5064192;28;20059;-76
2023/03/08 12:17:40;;;;;;;4.20;1.10;;;4.70;99.90;;;;;;5050316;28;20490;-77
2023/03/08 12:20:12;;;;;;;4.57;0.80;;;4.70;99.90;;;;;;5067118;28;20039;-76
2023/03/08 12:22:50;;;;;;;4.30;0.90;;;4.60;99.90;;;;;;5066151;28;20044;-77
2023/03/08 12:25:23;;;;;;;3.90;1.00;;;4.50;99.90;;;;;;5080312;28;20051;-76
2023/03/08 12:28:19;;;;;;;7.30;1.27;;;4.60;99.90;;;;;;5056340;28;20048;-76
2023/03/08 12:31:24;;;;;;;8.07;1.13;;;4.70;99.90;;;;;;5064894;28;20648;-76
2023/03/08 12:33:54;;;;;;;4.50;0.90;;;4.70;99.90;;;;;;5049142;28;20088;-76
2023/03/08 12:36:23;;;;;;;5.30;0.90;;;4.60;99.90;;;;;;5035835;28;20217;-77
2023/03/08 12:38:55;;;;;;;4.07;0.60;;;4.60;99.90;;;;;;5061813;28;20040;-76
2023/03/08 12:41:29;;;;;;;4.63;0.70;;;4.70;99.90;;;;;;5065860;28;20045;-76
2023/03/08 12:44:22;;;;;;;4.87;0.77;;;4.50;99.90;;;;;;5062604;28;20044;-76
2023/03/08 12:47:00;;;;;;;2.63;0.93;;;4.50;99.90;;;;;;5049034;28;20410;-76
2023/03/08 12:49:31;;;;;;;2.90;1.20;;;4.70;99.90;;;;;;5065840;28;20040;-76
2023/03/08 12:52:03;;;;;;;4.55;1.17;;;4.80;99.90;;;;;;5066481;28;20049;-77
2023/03/08 12:54:32;;;;;;;3.57;1.00;;;5.00;99.90;;;;;;5046192;28;20076;-77
2023/03/08 12:56:59;;;;;;;3.80;0.97;;;4.90;99.90;;;;;;5051007;28;20033;-77
2023/03/08 12:59:34;;;;;;;8.83;1.77;;;4.70;99.90;;;;;;5065199;28;20093;-77
2023/03/08 13:02:20;;;;;;;3.13;0.97;;;4.70;99.90;;;;;;5068092;28;20067;-78
2023/03/08 13:04:46;;;;;;;7.80;0.97;;;4.70;99.90;;;;;;5049689;28;20048;-76
2023/03/08 13:07:23;;;;;;;5.33;1.10;;;4.80;99.90;;;;;;5051638;28;20368;-77
2023/03/08 13:09:56;;;;;;;5.80;1.10;;;4.70;99.90;;;;;;5031858;28;20067;-76
2023/03/08 13:12:28;;;;;;;5.93;0.80;;;4.80;99.90;;;;;;5035806;28;20079;-76
2023/03/08 13:15:12;;;;;;;5.23;0.87;;;5.00;99.90;;;;;;5052625;28;20498;-76
2023/03/08 13:18:02;;;;;;;5.00;1.60;;;4.80;99.90;;;;;;5040487;28;20044;-77
2023/03/08 13:20:40;;;;;;;5.17;1.57;;;4.90;99.90;;;;;;5070859;28;20098;-76
2023/03/08 13:23:17;;;;;;;4.43;0.90;;;5.00;99.90;;;;;;5067554;28;20383;-77
2023/03/08 13:26:00;;;;;;;3.10;1.20;;;4.90;99.90;;;;;;5071154;28;20040;-76
2023/03/08 13:28:36;;;;;;;7.30;1.50;;;4.90;99.90;;;;;;5052142;28;20083;-77
2023/03/08 13:31:14;;;;;;;6.10;1.50;;;4.70;99.90;;;;;;5059911;28;20119;-76
2023/03/08 13:33:44;;;;;;;7.53;1.00;;;4.80;99.90;;;;;;5068950;28;20049;-76
2023/03/08 13:36:18;;;;;;;4.20;0.93;;;4.90;99.90;;;;;;5055293;28;20592;-76
2023/03/08 13:38:44;;;;;;;6.20;1.00;;;4.80;99.90;;;;;;5040180;28;20081;-76
2023/03/08 13:41:09;;;;;;;3.87;1.20;;;4.80;99.90;;;;;;5070878;28;20075;-76
2023/03/08 13:43:35;;;;;;;9.07;1.90;;;4.70;99.90;;;;;;5070406;28;20064;-76
2023/03/08 13:46:04;;;;;;;5.20;1.50;;;4.70;99.90;;;;;;5053175;28;20123;-76
2023/03/08 13:48:33;;;;;;;2.83;1.10;;;4.50;99.90;;;;;;5038185;28;20060;-76